Aspen, Colorado
Current Conditions -  °F | °C
As of 7:53 AM on Thursday 23 Oct 2014 (Local Time) from KASE Reporting Station
Clear Clear  
Wind Chill: 26°   Ceiling: Unl
Heat Index: 33°   Visibility: 10mi
Dew Point: 27°   Wind: 8mph
Humidity: 78%   Direction: 220°SW
Pressure: 30.35"   Gusts: NA
Location:  39.19°N, 106.81°W
Report Text: KASE 231353Z 22007KT 10SM CLR 01/M03 A3035 RMK AO2 SLP239 T00061028
Loading
Personal Weather Stations






























Interactive Weather Map
Tropical Storm Tracking
New forecast layout! Learn more

10-Day Weather Forecast

Advertisements
Track Severe Weather on mobile